createdAt,value
2024-04-06T00:00:00.635Z,81
2024-04-06T00:02:00.572Z,81
2024-04-06T00:03:00.610Z,81
2024-04-06T00:04:00.575Z,81
2024-04-06T00:05:00.604Z,81
2024-04-06T00:06:00.596Z,81
2024-04-06T00:07:00.605Z,81
2024-04-06T00:08:18.135Z,81
2024-04-06T00:10:00.687Z,81
2024-04-06T00:11:00.572Z,81
2024-04-06T00:12:00.611Z,81
2024-04-06T00:13:00.585Z,81
2024-04-06T00:14:00.589Z,81
2024-04-06T00:15:00.559Z,81
2024-04-06T00:16:00.546Z,81
2024-04-06T00:17:00.568Z,81
2024-04-06T00:18:00.591Z,81
2024-04-06T00:19:00.548Z,81
2024-04-06T00:20:00.704Z,81
2024-04-06T00:21:00.535Z,81
2024-04-06T00:22:00.559Z,81
2024-04-06T00:23:00.543Z,81
2024-04-06T00:24:00.557Z,81
2024-04-06T00:25:00.565Z,81
2024-04-06T00:26:00.525Z,81
2024-04-06T00:27:00.542Z,81
2024-04-06T00:28:00.578Z,81
2024-04-06T00:29:00.607Z,81
2024-04-06T00:30:00.634Z,81
2024-04-06T00:31:00.537Z,81
2024-04-06T00:32:00.619Z,81
2024-04-06T00:33:00.545Z,81
2024-04-06T00:34:00.584Z,81
2024-04-06T00:35:00.590Z,81
2024-04-06T00:36:00.610Z,81
2024-04-06T00:37:00.540Z,81
2024-04-06T00:38:00.633Z,81
2024-04-06T00:40:00.620Z,81
2024-04-06T00:41:00.524Z,81
2024-04-06T00:42:00.588Z,81
2024-04-06T00:43:00.612Z,81
2024-04-06T00:44:04.226Z,81
2024-04-06T00:46:00.685Z,81
2024-04-06T00:48:00.588Z,81
2024-04-06T00:49:00.596Z,81
2024-04-06T00:50:00.539Z,81
2024-04-06T00:51:00.597Z,81
2024-04-06T00:53:00.556Z,81
2024-04-06T00:54:00.574Z,81
2024-04-06T00:55:00.581Z,81
2024-04-06T00:56:00.636Z,81
2024-04-06T00:57:00.588Z,81
2024-04-06T00:58:00.559Z,81
2024-04-06T00:59:00.576Z,81
2024-04-06T01:00:00.558Z,81
2024-04-06T01:01:00.564Z,81
2024-04-06T01:02:05.987Z,81
2024-04-06T01:04:00.609Z,81
2024-04-06T01:06:00.651Z,81
2024-04-06T01:07:00.578Z,81
2024-04-06T01:09:00.599Z,81
2024-04-06T01:10:00.715Z,81
2024-04-06T01:11:00.550Z,81
2024-04-06T01:12:00.624Z,81
2024-04-06T01:13:00.550Z,81
2024-04-06T01:14:00.595Z,81
2024-04-06T01:16:00.622Z,81
2024-04-06T01:17:00.590Z,81
2024-04-06T01:18:00.562Z,81
2024-04-06T01:19:00.582Z,81
2024-04-06T01:21:00.602Z,81
2024-04-06T01:23:00.576Z,81
2024-04-06T01:24:00.557Z,81
2024-04-06T01:25:00.598Z,81
2024-04-06T01:26:00.648Z,81
2024-04-06T01:27:00.601Z,81
2024-04-06T01:28:00.542Z,81
2024-04-06T01:29:00.568Z,81
2024-04-06T01:30:00.704Z,81
2024-04-06T01:31:00.562Z,81
2024-04-06T01:32:00.630Z,81
2024-04-06T01:34:00.593Z,81
2024-04-06T01:35:00.643Z,81
2024-04-06T01:36:00.584Z,81
2024-04-06T01:37:00.650Z,81
2024-04-06T01:39:00.597Z,81
2024-04-06T01:40:00.579Z,81
2024-04-06T01:42:00.621Z,81
2024-04-06T01:43:00.521Z,81
2024-04-06T01:44:00.600Z,81
2024-04-06T01:45:00.673Z,81
2024-04-06T01:46:00.544Z,81
2024-04-06T01:47:00.592Z,81
2024-04-06T01:48:00.546Z,81
2024-04-06T01:49:00.580Z,81
2024-04-06T01:51:00.547Z,81
2024-04-06T01:52:00.578Z,81
2024-04-06T01:53:00.561Z,81
2024-04-06T01:54:00.564Z,81
2024-04-06T01:55:00.598Z,81
2024-04-06T01:56:00.560Z,81
2024-04-06T01:57:00.743Z,81
2024-04-06T01:58:00.534Z,81
2024-04-06T01:59:00.589Z,81
2024-04-06T02:00:00.699Z,81
2024-04-06T02:01:00.684Z,81
2024-04-06T02:02:00.613Z,81
2024-04-06T02:03:00.724Z,81
2024-04-06T02:04:00.539Z,81
2024-04-06T02:05:00.570Z,81
2024-04-06T02:06:00.584Z,81
2024-04-06T02:07:00.578Z,81
2024-04-06T02:08:00.570Z,81
2024-04-06T02:09:00.603Z,81
2024-04-06T02:10:00.562Z,81
2024-04-06T02:11:00.560Z,81
2024-04-06T02:12:00.592Z,81
2024-04-06T02:13:00.559Z,81
2024-04-06T02:14:00.587Z,81
2024-04-06T02:15:00.704Z,81
2024-04-06T02:16:00.572Z,81
2024-04-06T02:17:00.559Z,81
2024-04-06T02:18:00.578Z,81
2024-04-06T02:19:00.529Z,82
2024-04-06T02:20:00.589Z,82
2024-04-06T02:21:00.566Z,82
2024-04-06T02:22:00.615Z,82
2024-04-06T02:23:00.558Z,82
2024-04-06T02:24:00.555Z,82
2024-04-06T02:25:00.606Z,82
2024-04-06T02:26:00.587Z,82
2024-04-06T02:27:00.524Z,82
2024-04-06T02:28:00.577Z,82
2024-04-06T02:29:00.599Z,82
2024-04-06T02:30:00.530Z,82
2024-04-06T02:31:00.560Z,82
2024-04-06T02:32:00.606Z,82
2024-04-06T02:33:00.538Z,82
2024-04-06T02:34:00.565Z,82
2024-04-06T02:35:00.605Z,82
2024-04-06T02:36:00.589Z,82
2024-04-06T02:37:00.594Z,82
2024-04-06T02:38:00.565Z,82
2024-04-06T02:39:00.576Z,82
2024-04-06T02:40:00.572Z,82
2024-04-06T02:42:00.665Z,82
2024-04-06T02:43:00.566Z,82
2024-04-06T02:45:00.613Z,82
2024-04-06T02:46:00.536Z,82
2024-04-06T02:47:00.555Z,82
2024-04-06T02:48:00.574Z,82
2024-04-06T02:49:00.666Z,82
2024-04-06T02:50:00.568Z,82
2024-04-06T02:51:00.592Z,82
2024-04-06T02:52:00.608Z,82
2024-04-06T02:53:00.583Z,82
2024-04-06T02:54:00.678Z,82
2024-04-06T02:55:00.572Z,82
2024-04-06T02:57:00.599Z,82
2024-04-06T02:58:00.535Z,82
2024-04-06T02:59:00.585Z,82
2024-04-06T03:00:00.537Z,82
2024-04-06T03:01:00.557Z,82
2024-04-06T03:02:00.583Z,82
2024-04-06T03:03:00.543Z,82
2024-04-06T03:04:00.634Z,82
2024-04-06T03:05:00.546Z,82
2024-04-06T03:06:00.580Z,82
2024-04-06T03:07:00.574Z,82
2024-04-06T03:08:00.536Z,82
2024-04-06T03:09:00.555Z,82
2024-04-06T03:10:00.570Z,82
2024-04-06T03:11:00.595Z,82
2024-04-06T03:12:00.540Z,82
2024-04-06T03:13:00.589Z,83
2024-04-06T03:14:00.641Z,83
2024-04-06T03:15:00.553Z,83
2024-04-06T03:16:00.552Z,83
2024-04-06T03:17:00.566Z,83
2024-04-06T03:18:00.591Z,83
2024-04-06T03:19:00.539Z,83
2024-04-06T03:20:00.623Z,83
2024-04-06T03:21:00.544Z,83
2024-04-06T03:22:00.566Z,83
2024-04-06T03:23:00.596Z,83
2024-04-06T03:24:00.606Z,83
2024-04-06T03:26:00.560Z,83
2024-04-06T03:27:00.596Z,83
2024-04-06T03:28:00.620Z,83
2024-04-06T03:29:00.593Z,83
2024-04-06T03:30:00.663Z,83
2024-04-06T03:31:00.524Z,83
2024-04-06T03:32:00.715Z,83
2024-04-06T03:33:00.530Z,83
2024-04-06T03:34:00.580Z,83
2024-04-06T03:35:00.599Z,83
2024-04-06T03:36:00.551Z,83
2024-04-06T03:37:00.577Z,83
2024-04-06T03:38:00.552Z,83
2024-04-06T03:39:00.593Z,83
2024-04-06T03:40:00.811Z,83
2024-04-06T03:42:00.604Z,83
2024-04-06T03:43:00.541Z,83
2024-04-06T03:44:00.609Z,83
2024-04-06T03:45:00.652Z,83
2024-04-06T03:46:00.549Z,83
2024-04-06T03:47:00.618Z,83
2024-04-06T03:48:00.539Z,83
2024-04-06T03:49:00.577Z,83
2024-04-06T03:50:00.543Z,83
2024-04-06T03:51:00.583Z,83
2024-04-06T03:52:00.544Z,83
2024-04-06T03:53:00.584Z,83
2024-04-06T03:54:00.542Z,83
2024-04-06T03:55:00.564Z,83
2024-04-06T03:56:00.567Z,83
2024-04-06T03:57:00.649Z,83
2024-04-06T03:58:00.536Z,83
2024-04-06T03:59:00.574Z,83
2024-04-06T04:00:00.596Z,83
2024-04-06T04:01:00.602Z,83
2024-04-06T04:02:00.595Z,83
2024-04-06T04:03:00.556Z,83
2024-04-06T04:04:00.569Z,83
2024-04-06T04:05:00.584Z,83
2024-04-06T04:06:00.549Z,83
2024-04-06T04:07:00.562Z,82
2024-04-06T04:08:00.554Z,82
2024-04-06T04:09:00.555Z,82
2024-04-06T04:10:00.524Z,82
2024-04-06T04:11:00.724Z,82
2024-04-06T04:12:00.531Z,82
2024-04-06T04:13:00.573Z,82
2024-04-06T04:15:00.562Z,82
2024-04-06T04:16:00.623Z,82
2024-04-06T04:17:00.534Z,82
2024-04-06T04:18:00.570Z,82
2024-04-06T04:19:00.587Z,82
2024-04-06T04:20:00.564Z,82
2024-04-06T04:21:00.567Z,82
2024-04-06T04:22:00.574Z,82
2024-04-06T04:23:00.540Z,82
2024-04-06T04:24:00.569Z,82
2024-04-06T04:25:00.547Z,82
2024-04-06T04:26:00.630Z,82
2024-04-06T04:27:00.537Z,82
2024-04-06T04:28:00.565Z,82
2024-04-06T04:29:00.533Z,82
2024-04-06T04:30:00.554Z,82
2024-04-06T04:31:00.590Z,82
2024-04-06T04:32:00.570Z,82
2024-04-06T04:33:00.567Z,82
2024-04-06T04:34:00.574Z,82
2024-04-06T04:35:00.543Z,82
2024-04-06T04:36:00.568Z,82
2024-04-06T04:37:00.546Z,82
2024-04-06T04:38:00.575Z,82
2024-04-06T04:39:00.583Z,82
2024-04-06T04:40:00.610Z,82
2024-04-06T04:41:00.634Z,82
2024-04-06T04:42:00.606Z,82
2024-04-06T04:43:00.567Z,82
2024-04-06T04:44:29.887Z,82
2024-04-06T04:46:00.625Z,82
2024-04-06T04:47:00.559Z,82
2024-04-06T04:48:00.589Z,82
2024-04-06T04:49:00.551Z,82
2024-04-06T04:50:00.589Z,82
2024-04-06T04:51:00.572Z,82
2024-04-06T04:52:00.567Z,82
2024-04-06T04:53:00.571Z,82
2024-04-06T04:54:00.608Z,82
2024-04-06T04:55:00.585Z,82
2024-04-06T04:56:00.612Z,82
2024-04-06T04:57:00.622Z,82
2024-04-06T04:58:00.620Z,82
2024-04-06T04:59:00.571Z,82
2024-04-06T05:00:00.634Z,82
2024-04-06T05:01:00.543Z,82
2024-04-06T05:02:00.651Z,82
2024-04-06T05:03:00.551Z,82
2024-04-06T05:04:00.607Z,82
2024-04-06T05:05:00.586Z,82
2024-04-06T05:06:00.554Z,82
2024-04-06T05:07:00.607Z,82
2024-04-06T05:08:00.627Z,82
2024-04-06T05:09:00.623Z,82
2024-04-06T05:10:00.586Z,82
2024-04-06T05:11:00.609Z,82
2024-04-06T05:12:00.594Z,82
2024-04-06T05:13:00.545Z,82
2024-04-06T05:14:00.594Z,82
2024-04-06T05:15:00.582Z,82
2024-04-06T05:16:00.565Z,82
2024-04-06T05:17:00.579Z,82
2024-04-06T05:18:00.616Z,82
2024-04-06T05:19:00.556Z,82
2024-04-06T05:20:00.650Z,82
2024-04-06T05:21:00.548Z,82
2024-04-06T05:22:00.752Z,82
2024-04-06T05:23:00.572Z,82
2024-04-06T05:24:00.578Z,82
2024-04-06T05:25:00.574Z,82
2024-04-06T05:26:00.576Z,82
2024-04-06T05:27:00.563Z,82
2024-04-06T05:28:00.588Z,82
2024-04-06T05:30:00.614Z,82
2024-04-06T05:31:00.557Z,82
2024-04-06T05:32:00.616Z,82
2024-04-06T05:33:00.566Z,82
2024-04-06T05:34:00.576Z,82
2024-04-06T05:35:00.621Z,82
2024-04-06T05:36:03.091Z,82
2024-04-06T05:38:00.584Z,82
2024-04-06T05:39:00.571Z,82
2024-04-06T05:40:00.566Z,82
2024-04-06T05:41:00.575Z,82
2024-04-06T05:42:00.590Z,82
2024-04-06T05:43:00.554Z,82
2024-04-06T05:44:06.379Z,82
2024-04-06T05:46:00.635Z,82
2024-04-06T05:47:00.553Z,82
2024-04-06T05:48:00.602Z,82
2024-04-06T05:49:00.659Z,82
2024-04-06T05:50:00.561Z,84
2024-04-06T05:51:00.657Z,84
2024-04-06T05:52:00.543Z,84
2024-04-06T05:53:00.572Z,84
2024-04-06T05:54:00.538Z,84
2024-04-06T05:55:00.603Z,84
2024-04-06T05:56:00.563Z,84
2024-04-06T05:57:00.572Z,84
2024-04-06T05:58:00.586Z,84
2024-04-06T05:59:00.583Z,84
2024-04-06T06:00:00.543Z,84
2024-04-06T06:01:00.643Z,84
2024-04-06T06:02:00.600Z,84
2024-04-06T06:04:00.567Z,84
2024-04-06T06:05:00.593Z,84
2024-04-06T06:06:00.596Z,84
2024-04-06T06:08:00.578Z,84
2024-04-06T06:09:00.580Z,84
2024-04-06T06:10:00.555Z,84
2024-04-06T06:11:00.604Z,84
2024-04-06T06:12:00.588Z,84
2024-04-06T06:14:00.553Z,84
2024-04-06T06:15:00.571Z,84
2024-04-06T06:16:00.532Z,84
2024-04-06T06:17:00.590Z,84
2024-04-06T06:19:00.586Z,84
2024-04-06T06:20:00.534Z,84
2024-04-06T06:21:00.642Z,84
2024-04-06T06:22:00.580Z,84
2024-04-06T06:23:00.601Z,84
2024-04-06T06:24:00.625Z,84
2024-04-06T06:25:00.622Z,84
2024-04-06T06:26:00.639Z,84
2024-04-06T06:27:00.586Z,84
2024-04-06T06:29:00.616Z,84
2024-04-06T06:30:00.553Z,84
2024-04-06T06:31:00.672Z,84
2024-04-06T06:32:00.565Z,84
2024-04-06T06:33:00.642Z,84
2024-04-06T06:34:00.540Z,84
2024-04-06T06:35:00.586Z,84
2024-04-06T06:38:00.830Z,84
2024-04-06T06:41:00.574Z,84
2024-04-06T06:42:00.596Z,84
2024-04-06T06:43:00.537Z,84
2024-04-06T06:44:00.577Z,84
2024-04-06T06:45:00.524Z,84
2024-04-06T06:46:00.566Z,84
2024-04-06T06:47:00.603Z,84
2024-04-06T06:48:00.535Z,88
2024-04-06T06:49:00.575Z,88
2024-04-06T06:50:00.526Z,88
2024-04-06T06:51:00.600Z,88
2024-04-06T06:52:00.589Z,88
2024-04-06T06:53:00.597Z,88
2024-04-06T06:54:00.578Z,88
2024-04-06T06:55:00.572Z,88
2024-04-06T06:56:00.538Z,88
2024-04-06T06:57:00.692Z,88
2024-04-06T06:58:00.548Z,88
2024-04-06T06:59:00.613Z,88
2024-04-06T07:01:00.659Z,88
2024-04-06T07:02:00.608Z,88
2024-04-06T07:04:00.678Z,88
2024-04-06T07:05:00.578Z,88
2024-04-06T07:06:00.595Z,88
2024-04-06T07:08:00.589Z,88
2024-04-06T07:09:03.606Z,88
2024-04-06T07:11:00.679Z,88
2024-04-06T07:12:00.555Z,88
2024-04-06T07:13:00.666Z,88
2024-04-06T07:14:00.544Z,88
2024-04-06T07:15:00.714Z,88
2024-04-06T07:16:00.544Z,88
2024-04-06T07:17:00.618Z,88
2024-04-06T07:18:00.592Z,88
2024-04-06T07:19:00.563Z,88
2024-04-06T07:20:00.594Z,88
2024-04-06T07:21:00.601Z,88
2024-04-06T07:22:00.579Z,88
2024-04-06T07:23:00.592Z,88
2024-04-06T07:24:00.618Z,88
2024-04-06T07:25:00.606Z,88
2024-04-06T07:26:00.578Z,88
2024-04-06T07:27:00.601Z,88
2024-04-06T07:28:00.543Z,88
2024-04-06T07:29:00.560Z,88
2024-04-06T07:30:00.555Z,88
2024-04-06T07:31:00.570Z,88
2024-04-06T07:32:00.577Z,88
2024-04-06T07:33:00.585Z,88
2024-04-06T07:34:00.609Z,88
2024-04-06T07:35:00.541Z,88
2024-04-06T07:36:00.604Z,88
2024-04-06T07:37:00.619Z,88
2024-04-06T07:38:00.568Z,88
2024-04-06T07:40:00.555Z,83
2024-04-06T07:41:00.612Z,83
2024-04-06T07:42:00.626Z,83
2024-04-06T07:43:00.561Z,83
2024-04-06T07:44:00.624Z,83
2024-04-06T07:45:00.583Z,83
2024-04-06T07:47:00.599Z,83
2024-04-06T07:48:00.547Z,83
2024-04-06T07:49:00.590Z,83
2024-04-06T07:50:00.540Z,83
2024-04-06T07:51:00.581Z,83
2024-04-06T07:52:00.596Z,83
2024-04-06T07:53:00.548Z,83
2024-04-06T07:54:00.587Z,83
2024-04-06T07:55:00.597Z,83
2024-04-06T07:56:00.602Z,83
2024-04-06T07:57:00.619Z,83
2024-04-06T07:58:00.585Z,83
2024-04-06T07:59:00.587Z,83
2024-04-06T08:00:00.589Z,83
2024-04-06T08:02:00.639Z,83
2024-04-06T08:03:00.556Z,83
2024-04-06T08:04:00.612Z,83
2024-04-06T08:05:00.558Z,83
2024-04-06T08:06:00.588Z,83
2024-04-06T08:07:06.678Z,83
2024-04-06T08:09:00.568Z,83
2024-04-06T08:10:00.573Z,83
2024-04-06T08:11:00.596Z,83
2024-04-06T08:12:00.554Z,83
2024-04-06T08:13:00.587Z,83
2024-04-06T08:14:25.270Z,83
2024-04-06T08:16:00.607Z,83
2024-04-06T08:17:00.556Z,83
2024-04-06T08:19:00.579Z,83
2024-04-06T08:20:00.536Z,83
2024-04-06T08:21:00.624Z,83
2024-04-06T08:22:00.642Z,83
2024-04-06T08:23:00.558Z,83
2024-04-06T08:24:00.621Z,83
2024-04-06T08:25:00.587Z,83
2024-04-06T08:27:00.653Z,83
2024-04-06T08:28:00.573Z,83
2024-04-06T08:30:00.584Z,83
2024-04-06T08:31:00.542Z,79
2024-04-06T08:32:00.687Z,79
2024-04-06T08:33:04.427Z,79
2024-04-06T08:35:00.589Z,79
2024-04-06T08:36:00.565Z,79
2024-04-06T08:37:00.616Z,79
2024-04-06T08:38:00.550Z,79
2024-04-06T08:39:00.604Z,79
2024-04-06T08:40:00.562Z,79
2024-04-06T08:41:00.586Z,79
2024-04-06T08:42:00.564Z,79
2024-04-06T08:43:00.527Z,79
2024-04-06T08:44:00.579Z,79
2024-04-06T08:45:00.544Z,79
2024-04-06T08:46:00.545Z,79
2024-04-06T08:47:00.657Z,79
2024-04-06T08:48:00.534Z,79
2024-04-06T08:49:00.563Z,79
2024-04-06T08:50:00.557Z,79
2024-04-06T08:51:00.570Z,79
2024-04-06T08:52:00.627Z,79
2024-04-06T08:53:00.571Z,79
2024-04-06T08:54:00.600Z,79
2024-04-06T08:55:00.548Z,79
2024-04-06T08:56:00.581Z,79
2024-04-06T08:57:00.622Z,79
2024-04-06T08:58:00.550Z,79
2024-04-06T08:59:00.616Z,79
2024-04-06T09:01:00.562Z,79
2024-04-06T09:02:00.611Z,79
2024-04-06T09:03:00.557Z,79
2024-04-06T09:04:00.589Z,79
2024-04-06T09:05:00.525Z,79
2024-04-06T09:06:00.610Z,79
2024-04-06T09:07:00.549Z,79
2024-04-06T09:08:00.568Z,79
2024-04-06T09:09:00.572Z,79
2024-04-06T09:10:00.582Z,79
2024-04-06T09:11:00.568Z,79
2024-04-06T09:12:00.584Z,79
2024-04-06T09:14:00.551Z,79
2024-04-06T09:15:00.605Z,79
2024-04-06T09:16:00.675Z,79
2024-04-06T09:17:00.539Z,79
2024-04-06T09:18:00.624Z,79
2024-04-06T09:20:00.568Z,79
2024-04-06T09:21:00.561Z,79
2024-04-06T09:22:00.607Z,79
2024-04-06T09:23:00.537Z,79
2024-04-06T09:24:00.561Z,76
2024-04-06T09:25:00.574Z,76
2024-04-06T09:26:00.583Z,76
2024-04-06T09:27:00.638Z,76
2024-04-06T09:28:00.555Z,76
2024-04-06T09:29:00.589Z,76
2024-04-06T09:30:00.555Z,76
2024-04-06T09:31:00.558Z,76
2024-04-06T09:32:00.549Z,76
2024-04-06T09:33:00.551Z,76
2024-04-06T09:34:00.601Z,76
2024-04-06T09:35:00.617Z,76
2024-04-06T09:36:00.654Z,76
2024-04-06T09:37:00.537Z,76
2024-04-06T09:38:00.564Z,76
2024-04-06T09:39:00.613Z,76
2024-04-06T09:40:00.533Z,76
2024-04-06T09:41:00.566Z,76
2024-04-06T09:42:00.586Z,76
2024-04-06T09:43:00.536Z,76
2024-04-06T09:44:00.560Z,76
2024-04-06T09:45:00.580Z,76
2024-04-06T09:46:00.595Z,76
2024-04-06T09:47:00.610Z,76
2024-04-06T09:49:00.580Z,76
2024-04-06T09:50:00.565Z,76
2024-04-06T09:51:00.593Z,76
2024-04-06T09:52:00.554Z,76
2024-04-06T09:53:00.594Z,76
2024-04-06T09:54:00.612Z,76
2024-04-06T09:56:00.641Z,76
2024-04-06T09:57:00.563Z,76
2024-04-06T09:58:00.591Z,76
2024-04-06T09:59:00.521Z,76
2024-04-06T10:00:00.738Z,76
2024-04-06T10:01:00.556Z,76
2024-04-06T10:02:00.573Z,76
2024-04-06T10:03:00.535Z,76
2024-04-06T10:04:00.560Z,76
2024-04-06T10:05:00.646Z,76
2024-04-06T10:06:00.571Z,76
2024-04-06T10:07:00.587Z,76
2024-04-06T10:08:00.560Z,76
2024-04-06T10:09:00.606Z,76
2024-04-06T10:10:00.680Z,76
2024-04-06T10:12:00.581Z,76
2024-04-06T10:14:00.563Z,76
2024-04-06T10:15:00.603Z,76
2024-04-06T10:16:00.624Z,76
2024-04-06T10:17:00.535Z,76
2024-04-06T10:18:00.636Z,76
2024-04-06T10:19:00.555Z,76
2024-04-06T10:20:01.632Z,76
2024-04-06T10:22:00.565Z,69
2024-04-06T10:23:00.613Z,69
2024-04-06T10:24:00.549Z,69
2024-04-06T10:25:00.627Z,69
2024-04-06T10:26:01.914Z,69
2024-04-06T10:28:00.560Z,69
2024-04-06T10:29:00.547Z,69
2024-04-06T10:30:00.714Z,69
2024-04-06T10:31:00.582Z,69
2024-04-06T10:32:00.592Z,69
2024-04-06T10:33:00.645Z,69
2024-04-06T10:34:00.559Z,69
2024-04-06T10:35:00.656Z,69
2024-04-06T10:36:00.528Z,69
2024-04-06T10:37:02.435Z,69
2024-04-06T10:39:00.599Z,69
2024-04-06T10:40:00.735Z,69
2024-04-06T10:41:00.579Z,69
2024-04-06T10:42:00.663Z,69
2024-04-06T10:43:07.287Z,69
2024-04-06T10:45:00.637Z,69
2024-04-06T10:46:00.581Z,69
2024-04-06T10:47:00.661Z,69
2024-04-06T10:48:00.622Z,69
2024-04-06T10:49:06.460Z,69
2024-04-06T10:51:00.758Z,69
2024-04-06T10:52:00.594Z,69
2024-04-06T10:53:00.662Z,69
2024-04-06T10:55:00.634Z,69
2024-04-06T10:56:00.636Z,69
2024-04-06T10:57:00.641Z,69
2024-04-06T10:58:00.683Z,69
2024-04-06T10:59:00.642Z,69
2024-04-06T11:00:00.688Z,69
2024-04-06T11:02:00.675Z,69
2024-04-06T11:04:00.634Z,69
2024-04-06T11:05:00.701Z,69
2024-04-06T11:06:00.629Z,69
2024-04-06T11:08:00.652Z,69
2024-04-06T11:09:00.714Z,69
2024-04-06T11:10:00.604Z,69
2024-04-06T11:11:00.720Z,69
2024-04-06T11:12:00.595Z,69
2024-04-06T11:13:00.683Z,69
2024-04-06T11:14:00.696Z,69
2024-04-06T11:15:00.679Z,69
2024-04-06T11:16:00.708Z,69
2024-04-06T11:17:00.669Z,69
2024-04-06T11:18:00.664Z,69
2024-04-06T11:19:00.614Z,69
2024-04-06T11:20:00.710Z,69
2024-04-06T11:21:00.715Z,71
2024-04-06T11:22:00.605Z,71
2024-04-06T11:23:00.723Z,71
2024-04-06T11:24:00.753Z,71
2024-04-06T11:26:00.579Z,71
2024-04-06T11:27:00.682Z,71
2024-04-06T11:29:00.742Z,71
2024-04-06T11:30:05.364Z,71
2024-04-06T11:32:00.579Z,71
2024-04-06T11:33:00.757Z,71
2024-04-06T11:35:00.578Z,71
2024-04-06T11:37:00.720Z,71
2024-04-06T11:38:00.552Z,71
2024-04-06T11:39:00.620Z,71
2024-04-06T11:40:00.665Z,71
2024-04-06T11:41:00.557Z,71
2024-04-06T11:42:00.684Z,71
2024-04-06T11:44:00.646Z,71
2024-04-06T11:45:00.642Z,71
2024-04-06T11:47:00.745Z,71
2024-04-06T11:49:00.629Z,71
2024-04-06T11:51:00.594Z,71
2024-04-06T11:52:00.671Z,71
2024-04-06T11:53:00.541Z,71
2024-04-06T11:54:00.668Z,71
2024-04-06T11:56:00.673Z,71
2024-04-06T11:57:00.778Z,71
2024-04-06T11:59:00.630Z,71
2024-04-06T12:00:00.860Z,71
2024-04-06T12:01:00.569Z,71
2024-04-06T12:02:00.701Z,71
2024-04-06T12:03:00.746Z,71
2024-04-06T12:05:00.626Z,71
2024-04-06T12:06:00.592Z,71
2024-04-06T12:07:00.816Z,71
2024-04-06T12:09:00.704Z,71
2024-04-06T12:10:00.581Z,71
2024-04-06T12:11:00.618Z,71
2024-04-06T12:12:00.650Z,71
2024-04-06T12:13:00.747Z,71
2024-04-06T12:14:00.649Z,71
2024-04-06T12:15:00.678Z,71
2024-04-06T12:16:00.568Z,71
2024-04-06T12:17:00.711Z,71
2024-04-06T12:18:00.555Z,71
2024-04-06T12:19:00.570Z,71
2024-04-06T12:20:00.804Z,71
2024-04-06T12:21:00.563Z,71
2024-04-06T12:22:00.756Z,71
2024-04-06T12:23:00.633Z,71
2024-04-06T12:24:00.755Z,71
2024-04-06T12:25:00.610Z,71
2024-04-06T12:26:00.608Z,71
2024-04-06T12:27:00.673Z,71
2024-04-06T12:28:00.648Z,71
2024-04-06T12:29:00.689Z,71
2024-04-06T12:30:00.724Z,71
2024-04-06T12:31:00.614Z,71
2024-04-06T12:32:00.711Z,71
2024-04-06T12:33:00.645Z,71
2024-04-06T12:34:00.669Z,71
2024-04-06T12:35:00.547Z,71
2024-04-06T12:36:00.589Z,71
2024-04-06T12:37:00.731Z,71
2024-04-06T12:38:00.578Z,71
2024-04-06T12:39:00.599Z,71
2024-04-06T12:40:00.610Z,71
2024-04-06T12:41:00.583Z,71
2024-04-06T12:42:00.580Z,71
2024-04-06T12:43:00.575Z,71
2024-04-06T12:44:00.567Z,71
2024-04-06T12:45:00.570Z,71
2024-04-06T12:46:00.665Z,71
2024-04-06T12:48:00.594Z,71
2024-04-06T12:49:00.622Z,71
2024-04-06T12:50:00.553Z,71
2024-04-06T12:51:00.564Z,71
2024-04-06T12:52:00.594Z,71
2024-04-06T12:53:00.562Z,71
2024-04-06T12:55:00.586Z,71
2024-04-06T12:56:00.649Z,71
2024-04-06T12:57:00.613Z,71
2024-04-06T12:58:00.597Z,71
2024-04-06T12:59:00.540Z,71
2024-04-06T13:00:00.601Z,71
2024-04-06T13:01:00.539Z,71
2024-04-06T13:02:00.618Z,71
2024-04-06T13:03:00.530Z,71
2024-04-06T13:04:06.276Z,71
2024-04-06T13:06:00.554Z,71
2024-04-06T13:07:00.649Z,71
2024-04-06T13:08:00.546Z,71
2024-04-06T13:09:00.615Z,71
2024-04-06T13:10:00.570Z,71
2024-04-06T13:11:00.573Z,71
2024-04-06T13:12:00.602Z,71
2024-04-06T13:13:00.555Z,67
2024-04-06T13:15:00.576Z,67
2024-04-06T13:16:00.594Z,67
2024-04-06T13:17:00.564Z,67
2024-04-06T13:18:00.573Z,67
2024-04-06T13:19:00.578Z,67
2024-04-06T13:20:00.534Z,67
2024-04-06T13:21:00.581Z,67
2024-04-06T13:22:00.662Z,67
2024-04-06T13:23:00.568Z,67
2024-04-06T13:24:00.579Z,67
2024-04-06T13:25:00.547Z,67
2024-04-06T13:26:00.561Z,67
2024-04-06T13:27:00.590Z,67
2024-04-06T13:28:00.552Z,67
2024-04-06T13:29:00.562Z,67
2024-04-06T13:30:00.593Z,67
2024-04-06T13:31:00.546Z,67
2024-04-06T13:32:00.887Z,67
2024-04-06T13:34:00.548Z,67
2024-04-06T13:35:00.582Z,67
2024-04-06T13:37:00.665Z,67
2024-04-06T13:38:00.619Z,67
2024-04-06T13:39:00.605Z,67
2024-04-06T13:40:00.565Z,67
2024-04-06T13:41:00.576Z,67
2024-04-06T13:42:00.597Z,67
2024-04-06T13:43:00.575Z,67
2024-04-06T13:44:00.549Z,67
2024-04-06T13:45:00.579Z,67
2024-04-06T13:46:00.582Z,67
2024-04-06T13:47:00.559Z,67
2024-04-06T13:48:00.604Z,67
2024-04-06T13:49:00.648Z,67
2024-04-06T13:50:01.650Z,67
2024-04-06T13:52:00.655Z,67
2024-04-06T13:53:00.538Z,67
2024-04-06T13:54:00.573Z,67
2024-04-06T13:55:00.603Z,67
2024-04-06T13:56:00.559Z,67
2024-04-06T13:57:00.585Z,67
2024-04-06T13:58:00.662Z,67
2024-04-06T13:59:00.547Z,67
2024-04-06T14:00:00.646Z,67
2024-04-06T14:01:00.614Z,67
2024-04-06T14:03:00.661Z,67
2024-04-06T14:04:00.532Z,67
2024-04-06T14:05:00.589Z,67
2024-04-06T14:06:00.604Z,67
2024-04-06T14:07:00.616Z,67
2024-04-06T14:08:00.554Z,67
2024-04-06T14:09:00.580Z,67
2024-04-06T14:10:00.591Z,67
2024-04-06T14:11:00.593Z,67
2024-04-06T14:12:00.578Z,67
2024-04-06T14:13:03.010Z,69
2024-04-06T14:15:00.596Z,69
2024-04-06T14:16:00.632Z,69
2024-04-06T14:17:00.556Z,69
2024-04-06T14:18:00.584Z,69
2024-04-06T14:19:00.597Z,69
2024-04-06T14:20:00.629Z,69
2024-04-06T14:22:00.646Z,69
2024-04-06T14:23:00.573Z,69
2024-04-06T14:24:00.624Z,69
2024-04-06T14:25:00.552Z,69
2024-04-06T14:26:00.605Z,69
2024-04-06T14:27:00.619Z,69
2024-04-06T14:28:00.567Z,69
2024-04-06T14:29:00.588Z,69
2024-04-06T14:30:00.649Z,69
2024-04-06T14:31:00.548Z,69
2024-04-06T14:32:00.663Z,69
2024-04-06T14:33:00.620Z,69
2024-04-06T14:35:00.587Z,69
2024-04-06T14:36:00.646Z,69
2024-04-06T14:37:00.628Z,69
2024-04-06T14:38:00.576Z,69
2024-04-06T14:39:00.608Z,69
2024-04-06T14:40:00.523Z,69
2024-04-06T14:41:00.572Z,69
2024-04-06T14:42:00.619Z,69
2024-04-06T14:44:00.562Z,69
2024-04-06T14:45:00.585Z,69
2024-04-06T14:46:00.546Z,69
2024-04-06T14:47:00.577Z,69
2024-04-06T14:48:00.539Z,69
2024-04-06T14:49:00.674Z,69
2024-04-06T14:50:00.552Z,69
2024-04-06T14:51:00.639Z,69
2024-04-06T14:52:00.577Z,69
2024-04-06T14:53:00.585Z,69
2024-04-06T14:54:00.583Z,69
2024-04-06T14:55:00.591Z,69
2024-04-06T14:56:00.551Z,69
2024-04-06T14:57:00.634Z,69
2024-04-06T14:59:00.610Z,69
2024-04-06T15:00:00.637Z,69
2024-04-06T15:01:00.621Z,69
2024-04-06T15:02:00.557Z,69
2024-04-06T15:03:00.590Z,69
2024-04-06T15:04:00.587Z,69
2024-04-06T15:05:00.554Z,69
2024-04-06T15:06:00.622Z,69
2024-04-06T15:07:00.593Z,69
2024-04-06T15:08:00.567Z,69
2024-04-06T15:09:00.598Z,69
2024-04-06T15:11:00.674Z,69
2024-04-06T15:12:00.578Z,69
2024-04-06T15:13:00.581Z,69
2024-04-06T15:14:00.580Z,69
2024-04-06T15:15:00.576Z,69
2024-04-06T15:16:00.576Z,69
2024-04-06T15:17:00.648Z,69
2024-04-06T15:18:00.575Z,69
2024-04-06T15:19:00.579Z,69
2024-04-06T15:20:00.614Z,69
2024-04-06T15:21:00.553Z,69
2024-04-06T15:22:00.697Z,69
2024-04-06T15:23:00.547Z,69
2024-04-06T15:24:00.651Z,69
2024-04-06T15:25:00.566Z,69
2024-04-06T15:26:00.571Z,69
2024-04-06T15:27:00.596Z,69
2024-04-06T15:28:00.563Z,69
2024-04-06T15:30:00.613Z,69
2024-04-06T15:31:00.550Z,69
2024-04-06T15:32:00.630Z,69
2024-04-06T15:34:00.605Z,69
2024-04-06T15:35:00.622Z,69
2024-04-06T15:36:00.564Z,69
2024-04-06T15:37:04.886Z,69
2024-04-06T15:39:00.698Z,69
2024-04-06T15:40:00.566Z,69
2024-04-06T15:41:00.611Z,69
2024-04-06T15:42:00.577Z,69
2024-04-06T15:43:00.635Z,69
2024-04-06T15:44:00.556Z,69
2024-04-06T15:45:00.581Z,69
2024-04-06T15:46:00.598Z,69
2024-04-06T15:47:00.638Z,69
2024-04-06T15:48:00.577Z,69
2024-04-06T15:49:00.587Z,69